| time (UTC) | temp F | wind direction | speed MPH | gust MPH | rain 1hr in | rain 24hr in | rain mn in | humidity % | barometer mb |
| 20260508013021 | 74 | 115 | 0.0 | 0.0 | 0.00 | 0.20 | 0.20 | 94 | 1018.4 |
| 20260508012519 | 74 | 198 | 0.0 | 1.0 | 0.00 | 0.20 | 0.20 | 94 | 1018.0 |
| 20260508012016 | 74 | 120 | 0.0 | 0.0 | 0.00 | 0.20 | 0.20 | 94 | 1018.1 |
| 20260508011514 | 74 | 15 | 0.0 | 0.0 | 0.00 | 0.20 | 0.20 | 93 | 1018.2 |
| 20260508011011 | 74 | 240 | 2.0 | 4.0 | 0.00 | 0.20 | 0.20 | 94 | 1017.9 |
| 20260508010508 | 74 | 245 | 0.0 | 2.0 | 0.00 | 0.20 | 0.20 | 94 | 1018.1 |
| 20260508010005 | 74 | 308 | 0.0 | 1.0 | 0.00 | 0.20 | 0.20 | 94 | 1017.8 |
| 20260508005501 | 74 | 273 | 3.0 | 4.0 | 0.00 | 0.20 | 0.20 | 94 | 1018.0 |
| 20260508004959 | 74 | 254 | 0.0 | 0.0 | 0.00 | 0.20 | 0.20 | 94 | 1018.0 |
| 20260508004454 | 74 | 255 | 0.0 | 0.0 | 0.00 | 0.20 | 0.20 | 94 | 1018.0 |
| 20260508003951 | 74 | 254 | 0.0 | 0.0 | 0.00 | 0.20 | 0.20 | 93 | 1017.9 |
| 20260508003448 | 74 | 266 | 0.0 | 1.0 | 0.00 | 0.20 | 0.20 | 93 | 1017.7 |
| 20260508002945 | 75 | 266 | 0.0 | 0.0 | 0.00 | 0.20 | 0.20 | 92 | 1017.6 |
| 20260508002441 | 75 | 266 | 0.0 | 0.0 | 0.00 | 0.20 | 0.20 | 92 | 1017.7 |
| 20260508001937 | 75 | 266 | 1.0 | 2.0 | 0.00 | 0.20 | 0.20 | 92 | 1017.8 |
| 20260508001434 | 75 | 275 | 0.0 | 1.0 | 0.00 | 0.20 | 0.20 | 92 | 1017.7 |
| 20260508000931 | 75 | 305 | 2.0 | 2.0 | 0.00 | 0.20 | 0.20 | 93 | 1017.7 |
| 20260508000427 | 75 | 305 | 1.0 | 1.0 | 0.00 | 0.20 | 0.20 | 92 | 1017.5 |
| 20260507235924 | 75 | 306 | 0.0 | 2.0 | 0.00 | 0.20 | 0.20 | 93 | 1017.6 |
| 20260507235421 | 75 | 306 | 0.0 | 0.0 | 0.00 | 0.20 | 0.20 | 93 | 1017.7 |
| 20260507234918 | 75 | 306 | 0.0 | 0.0 | 0.00 | 0.20 | 0.20 | 93 | 1017.6 |
| 20260507234414 | 75 | 306 | 0.0 | 0.0 | 0.00 | 0.20 | 0.20 | 93 | 1017.8 |
| 20260507233911 | 75 | 306 | 0.0 | 0.0 | 0.00 | 0.20 | 0.20 | 92 | 1017.5 |
| 20260507233408 | 75 | 306 | 0.0 | 0.0 | 0.00 | 0.20 | 0.20 | 92 | 1017.6 |
| 20260507232907 | 75 | 306 | 0.0 | 0.0 | 0.00 | 0.20 | 0.20 | 92 | 1017.4 |
| 20260507232403 | 75 | 306 | 0.0 | 0.0 | 0.00 | 0.20 | 0.20 | 92 | 1017.4 |
| 20260507231900 | 75 | 306 | 0.0 | 0.0 | 0.00 | 0.20 | 0.20 | 92 | 1017.1 |
| 20260507231356 | 75 | 306 | 0.0 | 0.0 | 0.00 | 0.20 | 0.20 | 92 | 1017.2 |
| 20260507230853 | 75 | 306 | 0.0 | 0.0 | 0.00 | 0.20 | 0.20 | 92 | 1017.0 |
| 20260507230350 | 75 | 306 | 0.0 | 0.0 | 0.00 | 0.20 | 0.20 | 91 | 1017.3 |
| 20260507225850 | 75 | 306 | 0.0 | 0.0 | 0.00 | 0.20 | 0.20 | 91 | 1017.0 |
| 20260507225346 | 76 | 306 | 0.0 | 0.0 | 0.00 | 0.20 | 0.20 | 91 | 1017.0 |
| 20260507224842 | 76 | 306 | 0.0 | 0.0 | 0.00 | 0.20 | 0.20 | 91 | 1017.1 |
| 20260507224339 | 76 | 306 | 0.0 | 0.0 | 0.00 | 0.20 | 0.20 | 90 | 1017.0 |
| 20260507223835 | 76 | 306 | 0.0 | 0.0 | 0.00 | 0.20 | 0.20 | 89 | 1016.9 |
| 20260507223331 | 76 | 306 | 0.0 | 0.0 | 0.00 | 0.20 | 0.20 | 89 | 1017.0 |
| 20260507222829 | 77 | 306 | 0.0 | 0.0 | 0.00 | 0.20 | 0.20 | 88 | 1016.7 |
| 20260507222325 | 77 | 306 | 0.0 | 0.0 | 0.00 | 0.20 | 0.20 | 87 | 1016.4 |
| 20260507221822 | 77 | 306 | 0.0 | 0.0 | 0.00 | 0.20 | 0.20 | 87 | 1016.5 |
| 20260507221319 | 77 | 308 | 0.0 | 1.0 | 0.00 | 0.20 | 0.20 | 86 | 1016.4 |
| 20260507220815 | 77 | 259 | 2.0 | 3.0 | 0.00 | 0.20 | 0.20 | 86 | 1016.3 |
| 20260507220314 | 77 | 273 | 3.0 | 3.0 | 0.00 | 0.20 | 0.20 | 86 | 1016.2 |
| 20260507215809 | 77 | 261 | 0.0 | 0.0 | 0.00 | 0.20 | 0.20 | 88 | 1016.3 |
| 20260507215307 | 77 | 267 | 2.0 | 3.0 | 0.00 | 0.20 | 0.20 | 87 | 1016.3 |
| 20260507214804 | 77 | 250 | 0.0 | 0.0 | 0.00 | 0.20 | 0.20 | 87 | 1016.1 |
| 20260507214301 | 78 | 250 | 0.0 | 1.0 | 0.00 | 0.20 | 0.20 | 86 | 1016.3 |
| 20260507213756 | 78 | 250 | 0.0 | 0.0 | 0.00 | 0.20 | 0.20 | 85 | 1016.2 |
| 20260507213253 | 79 | 250 | 0.0 | 1.0 | 0.00 | 0.20 | 0.20 | 84 | 1016.4 |
| 20260507212750 | 79 | 250 | 0.0 | 0.0 | 0.00 | 0.20 | 0.20 | 83 | 1016.0 |
| 20260507212246 | 79 | 249 | 2.0 | 3.0 | 0.00 | 0.20 | 0.20 | 81 | 1016.0 |
| 20260507211743 | 79 | 308 | 0.0 | 2.0 | 0.00 | 0.20 | 0.20 | 82 | 1016.0 |
| 20260507211239 | 80 | 213 | 0.0 | 0.0 | 0.00 | 0.20 | 0.20 | 81 | 1016.0 |
| 20260507210736 | 80 | 214 | 1.0 | 6.0 | 0.00 | 0.20 | 0.20 | 79 | 1016.0 |
| 20260507210233 | 81 | 310 | 0.0 | 3.0 | 0.00 | 0.20 | 0.20 | 79 | 1016.3 |
| 20260507205730 | 81 | 117 | 1.0 | 1.0 | 0.00 | 0.20 | 0.20 | 78 | 1016.0 |
| 20260507205226 | 82 | 270 | 3.0 | 3.0 | 0.00 | 0.20 | 0.20 | 77 | 1016.1 |
| 20260507204722 | 82 | 209 | 1.0 | 1.0 | 0.00 | 0.20 | 0.20 | 76 | 1015.9 |
| 20260507204221 | 81 | 180 | 0.0 | 2.0 | 0.00 | 0.20 | 0.20 | 78 | 1016.2 |
| 20260507203718 | 81 | 273 | 0.0 | 2.0 | 0.00 | 0.20 | 0.20 | 79 | 1016.0 |
| 20260507203215 | 82 | 290 | 3.0 | 4.0 | 0.00 | 0.20 | 0.20 | 78 | 1016.3 |
| 20260507202711 | 82 | 239 | 2.0 | 2.0 | 0.00 | 0.20 | 0.20 | 78 | 1015.8 |
| 20260507202207 | 82 | 245 | 3.0 | 4.0 | 0.00 | 0.20 | 0.20 | 78 | 1016.2 |
| 20260507201702 | 82 | 256 | 2.0 | 3.0 | 0.00 | 0.20 | 0.20 | 76 | 1015.9 |
| 20260507201200 | 83 | 111 | 1.0 | 4.0 | 0.00 | 0.20 | 0.20 | 76 | 1016.3 |
| 20260507200656 | 84 | 90 | 1.0 | 2.0 | 0.00 | 0.20 | 0.20 | 75 | 1016.1 |
| 20260507200152 | 85 | 342 | 1.0 | 2.0 | 0.00 | 0.20 | 0.20 | 74 | 1016.0 |
| 20260507195648 | 83 | 356 | 2.0 | 2.0 | 0.00 | 0.20 | 0.20 | 75 | 1016.1 |
| 20260507195146 | 82 | 218 | 1.0 | 2.0 | 0.00 | 0.20 | 0.20 | 79 | 1016.1 |
| 20260507194642 | 81 | 244 | 1.0 | 4.0 | 0.00 | 0.20 | 0.20 | 80 | 1016.4 |
| 20260507194138 | 82 | 260 | 1.0 | 3.0 | 0.00 | 0.20 | 0.20 | 80 | 1016.3 |
| 20260507193635 | 82 | 280 | 4.0 | 4.0 | 0.00 | 0.20 | 0.20 | 79 | 1016.2 |
| 20260507193132 | 83 | 359 | 2.0 | 2.0 | 0.00 | 0.20 | 0.20 | 77 | 1016.3 |
| 20260507192628 | 83 | 10 | 1.0 | 3.0 | 0.00 | 0.20 | 0.20 | 77 | 1016.3 |
| 20260507192125 | 82 | 264 | 0.0 | 3.0 | 0.00 | 0.20 | 0.20 | 77 | 1016.4 |
| 20260507191621 | 82 | 295 | 1.0 | 1.0 | 0.00 | 0.20 | 0.20 | 81 | 1017.0 |
| 20260507191118 | 83 | 325 | 0.0 | 2.0 | 0.00 | 0.20 | 0.20 | 79 | 1016.6 |
| 20260507190615 | 83 | 304 | 4.0 | 4.0 | 0.00 | 0.20 | 0.20 | 76 | 1016.9 |
| 20260507190114 | 84 | 135 | 0.0 | 2.0 | 0.00 | 0.20 | 0.20 | 75 | 1016.5 |
| 20260507185612 | 84 | 156 | 0.0 | 1.0 | 0.00 | 0.20 | 0.20 | 75 | 1016.7 |
| 20260507185108 | 82 | 264 | 1.0 | 6.0 | 0.00 | 0.20 | 0.20 | 79 | 1016.4 |
| 20260507184606 | 84 | 253 | 4.0 | 6.0 | 0.00 | 0.20 | 0.20 | 76 | 1016.7 |
| 20260507184104 | 84 | 315 | 0.0 | 0.0 | 0.00 | 0.20 | 0.20 | 76 | 1016.6 |
| 20260507183600 | 84 | 263 | 4.0 | 4.0 | 0.00 | 0.20 | 0.20 | 75 | 1016.6 |
| 20260507183057 | 84 | 218 | 2.0 | 3.0 | 0.00 | 0.20 | 0.20 | 74 | 1016.9 |
| 20260507182553 | 85 | 289 | 1.0 | 4.0 | 0.00 | 0.20 | 0.20 | 73 | 1016.7 |
| 20260507182049 | 85 | 267 | 0.0 | 3.0 | 0.00 | 0.20 | 0.20 | 71 | 1017.2 |
| 20260507181547 | 87 | 268 | 1.0 | 4.0 | 0.00 | 0.20 | 0.20 | 69 | 1017.2 |
| 20260507181042 | 85 | 306 | 1.0 | 1.0 | 0.00 | 0.20 | 0.20 | 72 | 1017.1 |
| 20260507180539 | 86 | 97 | 2.0 | 4.0 | 0.00 | 0.20 | 0.20 | 74 | 1017.1 |
| 20260507180036 | 86 | 199 | 1.0 | 2.0 | 0.00 | 0.20 | 0.20 | 73 | 1017.4 |
| 20260507175532 | 86 | 215 | 1.0 | 4.0 | 0.00 | 0.20 | 0.20 | 74 | 1017.3 |
| 20260507175030 | 86 | 19 | 1.0 | 2.0 | 0.00 | 0.20 | 0.20 | 71 | 1017.3 |
| 20260507174527 | 86 | 250 | 1.0 | 2.0 | 0.00 | 0.20 | 0.20 | 72 | 1017.2 |
| 20260507174025 | 86 | 355 | 0.0 | 6.0 | 0.00 | 0.20 | 0.20 | 71 | 1017.3 |
| 20260507173521 | 85 | 334 | 1.0 | 2.0 | 0.00 | 0.20 | 0.20 | 75 | 1017.5 |
| 20260507173019 | 86 | 290 | 1.0 | 3.0 | 0.00 | 0.20 | 0.20 | 75 | 1017.5 |
| 20260507172514 | 86 | 332 | 0.0 | 3.0 | 0.00 | 0.20 | 0.20 | 73 | 1017.7 |
| 20260507172011 | 86 | 56 | 2.0 | 3.0 | 0.00 | 0.20 | 0.20 | 73 | 1018.0 |
| 20260507171507 | 87 | 221 | 1.0 | 3.0 | 0.00 | 0.20 | 0.20 | 72 | 1017.7 |
| 20260507171005 | 88 | 120 | 0.0 | 2.0 | 0.00 | 0.20 | 0.20 | 72 | 1017.8 |
| 20260507170501 | 86 | 166 | 0.0 | 1.0 | 0.00 | 0.20 | 0.20 | 74 | 1017.9 |
| 20260507165957 | 86 | 259 | 2.0 | 4.0 | 0.00 | 0.20 | 0.20 | 73 | 1018.0 |
| 20260507165453 | 87 | 22 | 1.0 | 3.0 | 0.00 | 0.20 | 0.20 | 75 | 1018.1 |
| 20260507164949 | 87 | 159 | 1.0 | 1.0 | 0.00 | 0.20 | 0.20 | 78 | 1018.1 |
| 20260507164446 | 85 | 181 | 0.0 | 1.0 | 0.00 | 0.20 | 0.20 | 74 | 1018.2 |
| 20260507163943 | 84 | 183 | 1.0 | 2.0 | 0.00 | 0.20 | 0.20 | 76 | 1018.2 |
| 20260507163441 | 84 | 171 | 0.0 | 1.0 | 0.00 | 0.20 | 0.20 | 82 | 1018.6 |
| 20260507162938 | 85 | 218 | 0.0 | 1.0 | 0.00 | 0.20 | 0.20 | 79 | 1018.5 |
| 20260507162433 | 83 | 336 | 1.0 | 3.0 | 0.00 | 0.20 | 0.20 | 79 | 1018.6 |
| 20260507161930 | 84 | 287 | 1.0 | 4.0 | 0.00 | 0.20 | 0.20 | 82 | 1018.7 |
| 20260507161426 | 83 | 226 | 2.0 | 2.0 | 0.00 | 0.20 | 0.20 | 87 | 1018.6 |
| 20260507160923 | 82 | 271 | 0.0 | 0.0 | 0.00 | 0.20 | 0.20 | 90 | 1018.8 |
| 20260507160419 | 80 | 271 | 0.0 | 0.0 | 0.00 | 0.20 | 0.20 | 91 | 1018.9 |
| 20260507155915 | 80 | 270 | 0.0 | 1.0 | 0.00 | 0.20 | 0.20 | 90 | 1018.9 |
| 20260507155411 | 80 | 271 | 0.0 | 1.0 | 0.00 | 0.20 | 0.20 | 88 | 1018.9 |
| 20260507154908 | 80 | 292 | 0.0 | 0.0 | 0.00 | 0.20 | 0.20 | 91 | 1019.0 |
| 20260507154405 | 80 | 292 | 0.0 | 0.0 | 0.00 | 0.20 | 0.20 | 91 | 1018.7 |
| 20260507153903 | 80 | 293 | 0.0 | 1.0 | 0.00 | 0.20 | 0.20 | 90 | 1019.0 |
| 20260507153359 | 80 | 292 | 0.0 | 0.0 | 0.00 | 0.20 | 0.20 | 91 | 1019.2 |
| 20260507152855 | 79 | 292 | 3.0 | 3.0 | 0.00 | 0.20 | 0.20 | 91 | 1019.2 |
| 20260507152352 | 78 | 274 | 0.0 | 0.0 | 0.00 | 0.20 | 0.20 | 92 | 1019.0 |
| 20260507151848 | 78 | 273 | 0.0 | 0.0 | 0.35 | 0.20 | 0.20 | 91 | 1019.3 |
| 20260507151344 | 78 | 273 | 0.0 | 0.0 | 0.73 | 0.20 | 0.20 | 90 | 1019.3 |
| 20260507150841 | 80 | 298 | 1.0 | 2.0 | 0.38 | 0.14 | 0.14 | 89 | 1019.1 |
| 20260507150338 | 80 | 280 | 0.0 | 1.0 | 0.00 | 0.08 | 0.08 | 85 | 1019.3 |
| 20260507145834 | 80 | 280 | 1.0 | 2.0 | 0.00 | 0.08 | 0.08 | 86 | 1019.5 |
| 20260507145331 | 80 | 253 | 0.0 | 2.0 | 0.00 | 0.08 | 0.08 | 89 | 1019.2 |
| 20260507144828 | 79 | 273 | 1.0 | 2.0 | 0.00 | 0.08 | 0.08 | 90 | 1019.3 |
| 20260507144325 | 79 | 258 | 2.0 | 3.0 | 0.00 | 0.08 | 0.08 | 90 | 1019.2 |
| 20260507143821 | 78 | 222 | 1.0 | 1.0 | 0.05 | 0.08 | 0.08 | 90 | 1019.5 |
| 20260507143319 | 77 | 221 | 0.0 | 1.0 | 0.40 | 0.08 | 0.08 | 90 | 1019.4 |
| 20260507142814 | 80 | 221 | 1.0 | 2.0 | 0.00 | 0.01 | 0.01 | 83 | 1019.4 |
| 20260507142311 | 80 | 147 | 0.0 | 7.0 | 0.00 | 0.01 | 0.01 | 81 | 1019.4 |
| 20260507141808 | 81 | 228 | 2.0 | 4.0 | 0.00 | 0.01 | 0.01 | 79 | 1019.2 |
| 20260507141305 | 82 | 253 | 0.0 | 3.0 | 0.00 | 0.01 | 0.01 | 79 | 1019.4 |
| 20260507140801 | 82 | 332 | 0.0 | 0.0 | 0.00 | 0.01 | 0.01 | 80 | 1019.3 |
| 20260507140258 | 82 | 275 | 0.0 | 3.0 | 0.00 | 0.01 | 0.01 | 80 | 1019.2 |
| 20260507135756 | 82 | 237 | 1.0 | 3.0 | 0.00 | 0.01 | 0.01 | 76 | 1019.3 |
| 20260507135253 | 82 | 285 | 2.0 | 3.0 | 0.00 | 0.01 | 0.01 | 79 | 1019.3 |
| 20260507134749 | 82 | 272 | 0.0 | 2.0 | 0.00 | 0.01 | 0.01 | 79 | 1019.1 |
| 20260507134246 | 81 | 262 | 1.0 | 2.0 | 0.00 | 0.01 | 0.01 | 80 | 1018.8 |
| 20260507133741 | 81 | 289 | 2.0 | 3.0 | 0.00 | 0.01 | 0.01 | 80 | 1019.1 |
| 20260507133238 | 82 | 303 | 0.0 | 4.0 | 0.00 | 0.01 | 0.01 | 78 | 1019.2 |
| 20260507132736 | 81 | 177 | 0.0 | 1.0 | 0.00 | 0.01 | 0.01 | 81 | 1019.0 |
| 20260507132233 | 80 | 189 | 1.0 | 1.0 | 0.00 | 0.01 | 0.01 | 82 | 1019.2 |
| 20260507131729 | 80 | 189 | 0.0 | 3.0 | 0.00 | 0.01 | 0.01 | 82 | 1018.9 |
| 20260507131227 | 80 | 254 | 0.0 | 0.0 | 0.00 | 0.01 | 0.01 | 87 | 1019.0 |
| 20260507130723 | 79 | 254 | 0.0 | 2.0 | 0.00 | 0.01 | 0.01 | 84 | 1019.2 |
| 20260507130221 | 80 | 238 | 0.0 | 1.0 | 0.00 | 0.01 | 0.01 | 86 | 1019.0 |
| 20260507125720 | 80 | 238 | 0.0 | 0.0 | 0.00 | 0.01 | 0.01 | 86 | 1019.1 |
| 20260507125217 | 79 | 242 | 2.0 | 2.0 | 0.00 | 0.01 | 0.01 | 86 | 1019.1 |
| 20260507124713 | 78 | 266 | 2.0 | 2.0 | 0.00 | 0.01 | 0.01 | 87 | 1018.9 |
| 20260507124210 | 78 | 303 | 1.0 | 3.0 | 0.00 | 0.01 | 0.01 | 88 | 1018.9 |
| 20260507123709 | 78 | 279 | 0.0 | 2.0 | 0.00 | 0.01 | 0.01 | 89 | 1019.0 |
| 20260507123206 | 77 | 287 | 3.0 | 3.0 | 0.00 | 0.01 | 0.01 | 91 | 1018.8 |
| 20260507122700 | 77 | 261 | 0.0 | 0.0 | 0.00 | 0.01 | 0.01 | 93 | 1018.8 |
| 20260507122157 | 76 | 260 | 0.0 | 2.0 | 0.00 | 0.01 | 0.01 | 93 | 1018.5 |
| 20260507121653 | 76 | 258 | 0.0 | 0.0 | 0.00 | 0.01 | 0.01 | 94 | 1018.5 |
| 20260507121149 | 76 | 257 | 0.0 | 2.0 | 0.00 | 0.01 | 0.01 | 93 | 1018.6 |
| 20260507120645 | 76 | 201 | 0.0 | 1.0 | 0.00 | 0.01 | 0.01 | 94 | 1018.6 |
| 20260507120142 | 76 | 134 | 0.0 | 1.0 | 0.00 | 0.01 | 0.01 | 94 | 1018.4 |
| 20260507115638 | 75 | 287 | 1.0 | 2.0 | 0.00 | 0.01 | 0.01 | 95 | 1018.5 |
| 20260507115134 | 75 | 281 | 2.0 | 2.0 | 0.00 | 0.01 | 0.01 | 96 | 1018.4 |
| 20260507114630 | 75 | 162 | 0.0 | 0.0 | 0.00 | 0.01 | 0.01 | 96 | 1018.3 |
| 20260507114127 | 74 | 235 | 1.0 | 2.0 | 0.00 | 0.01 | 0.01 | 96 | 1018.2 |
| 20260507113625 | 74 | 288 | 0.0 | 1.0 | 0.00 | 0.01 | 0.01 | 96 | 1018.4 |
| 20260507113122 | 74 | 309 | 0.0 | 0.0 | 0.00 | 0.01 | 0.01 | 97 | 1018.3 |
| 20260507112620 | 74 | 308 | 0.0 | 0.0 | 0.00 | 0.01 | 0.01 | 97 | 1018.3 |
| 20260507112116 | 74 | 262 | 3.0 | 4.0 | 0.00 | 0.01 | 0.01 | 97 | 1018.3 |
| 20260507111613 | 74 | 196 | 0.0 | 0.0 | 0.00 | 0.01 | 0.01 | 97 | 1018.3 |
| 20260507111110 | 74 | 196 | 0.0 | 0.0 | 0.07 | 0.01 | 0.01 | 97 | 1018.3 |
| 20260507110606 | 74 | 196 | 0.0 | 0.0 | 0.07 | 0.01 | 0.01 | 97 | 1018.2 |
| 20260507105600 | 73 | 196 | 0.0 | 0.0 | 0.00 | 0.00 | 0.00 | 97 | 1018.1 |
| 20260507105055 | 73 | 196 | 0.0 | 0.0 | 0.00 | 0.00 | 0.00 | 97 | 1018.1 |
| 20260507104553 | 73 | 196 | 0.0 | 0.0 | 0.00 | 0.00 | 0.00 | 97 | 1018.0 |
| 20260507104049 | 72 | 196 | 0.0 | 0.0 | 0.00 | 0.00 | 0.00 | 97 | 1017.8 |
| 20260507103545 | 72 | 196 | 0.0 | 0.0 | 0.00 | 0.00 | 0.00 | 97 | 1017.9 |
| 20260507103042 | 72 | 196 | 0.0 | 0.0 | 0.00 | 0.00 | 0.00 | 97 | 1017.7 |
| 20260507102539 | 72 | 196 | 0.0 | 0.0 | 0.00 | 0.00 | 0.00 | 97 | 1017.9 |
| 20260507102035 | 72 | 196 | 0.0 | 0.0 | 0.00 | 0.00 | 0.00 | 97 | 1017.8 |
| 20260507101530 | 72 | 196 | 0.0 | 0.0 | 0.00 | 0.00 | 0.00 | 97 | 1017.6 |
| 20260507101027 | 72 | 196 | 0.0 | 0.0 | 0.00 | 0.00 | 0.00 | 97 | 1017.7 |
| 20260507100525 | 72 | 196 | 0.0 | 0.0 | 0.00 | 0.00 | 0.00 | 97 | 1017.8 |
| 20260507100023 | 72 | 196 | 0.0 | 0.0 | 0.00 | 0.00 | 0.00 | 97 | 1017.8 |
| 20260507095520 | 72 | 196 | 0.0 | 0.0 | 0.00 | 0.00 | 0.00 | 97 | 1017.9 |
| 20260507095017 | 71 | 196 | 0.0 | 0.0 | 0.00 | 0.00 | 0.00 | 97 | 1017.9 |
| 20260507094513 | 71 | 196 | 0.0 | 0.0 | 0.00 | 0.00 | 0.00 | 97 | 1017.7 |
| 20260507094010 | 71 | 196 | 0.0 | 0.0 | 0.00 | 0.00 | 0.00 | 97 | 1017.8 |
| 20260507093507 | 72 | 196 | 0.0 | 0.0 | 0.00 | 0.00 | 0.00 | 97 | 1017.8 |
| 20260507093006 | 72 | 196 | 0.0 | 0.0 | 0.00 | 0.00 | 0.00 | 97 | 1017.7 |
| 20260507092502 | 72 | 196 | 0.0 | 0.0 | 0.00 | 0.00 | 0.00 | 97 | 1017.9 |
| 20260507091959 | 71 | 196 | 0.0 | 0.0 | 0.00 | 0.00 | 0.00 | 97 | 1017.7 |
| 20260507091455 | 72 | 196 | 0.0 | 0.0 | 0.00 | 0.00 | 0.00 | 97 | 1017.6 |
| 20260507090951 | 72 | 196 | 0.0 | 0.0 | 0.00 | 0.00 | 0.00 | 97 | 1017.7 |
| 20260507090447 | 72 | 196 | 0.0 | 0.0 | 0.00 | 0.00 | 0.00 | 97 | 1017.9 |
| 20260507085944 | 71 | 196 | 0.0 | 0.0 | 0.00 | 0.00 | 0.00 | 97 | 1017.9 |
| 20260507085441 | 71 | 196 | 0.0 | 0.0 | 0.00 | 0.00 | 0.00 | 97 | 1017.8 |
| 20260507084938 | 71 | 196 | 0.0 | 0.0 | 0.00 | 0.00 | 0.00 | 97 | 1017.6 |
| 20260507084435 | 71 | 196 | 0.0 | 0.0 | 0.00 | 0.00 | 0.00 | 97 | 1017.9 |
| 20260507083932 | 72 | 196 | 0.0 | 0.0 | 0.00 | 0.00 | 0.00 | 97 | 1017.8 |
| 20260507083428 | 72 | 196 | 0.0 | 0.0 | 0.00 | 0.00 | 0.00 | 97 | 1017.5 |
| 20260507082925 | 72 | 196 | 0.0 | 0.0 | 0.00 | 0.00 | 0.00 | 96 | 1017.8 |
| 20260507082421 | 72 | 196 | 0.0 | 0.0 | 0.00 | 0.00 | 0.00 | 96 | 1017.6 |
| 20260507081918 | 72 | 196 | 0.0 | 0.0 | 0.00 | 0.00 | 0.00 | 96 | 1017.5 |
| 20260507081414 | 72 | 196 | 0.0 | 0.0 | 0.00 | 0.00 | 0.00 | 96 | 1017.3 |
| 20260507080911 | 72 | 196 | 0.0 | 0.0 | 0.00 | 0.00 | 0.00 | 96 | 1017.4 |
| 20260507080407 | 72 | 196 | 0.0 | 0.0 | 0.00 | 0.00 | 0.00 | 96 | 1017.4 |
| 20260507075902 | 72 | 197 | 0.0 | 0.0 | 0.00 | 0.00 | 0.00 | 96 | 1017.3 |
| 20260507075359 | 72 | 196 | 0.0 | 0.0 | 0.00 | 0.00 | 0.00 | 96 | 1017.3 |
| 20260507074855 | 72 | 196 | 0.0 | 0.0 | 0.00 | 0.00 | 0.00 | 96 | 1017.5 |
| 20260507074352 | 72 | 196 | 0.0 | 0.0 | 0.00 | 0.00 | 0.00 | 96 | 1017.4 |
| 20260507073850 | 72 | 197 | 0.0 | 0.0 | 0.00 | 0.00 | 0.00 | 96 | 1017.6 |
| 20260507073346 | 73 | 221 | 0.0 | 0.0 | 0.00 | 0.00 | 0.00 | 96 | 1017.8 |
| 20260507072843 | 73 | 222 | 0.0 | 0.0 | 0.00 | 0.00 | 0.00 | 96 | 1017.7 |
| 20260507072341 | 73 | 222 | 0.0 | 1.0 | 0.00 | 0.00 | 0.00 | 97 | 1017.7 |
| 20260507071838 | 72 | 271 | 0.0 | 0.0 | 0.00 | 0.00 | 0.00 | 96 | 1017.4 |
| 20260507071335 | 72 | 271 | 0.0 | 0.0 | 0.00 | 0.00 | 0.00 | 96 | 1017.7 |
| 20260507070831 | 72 | 271 | 0.0 | 0.0 | 0.00 | 0.00 | 0.00 | 96 | 1017.6 |
| 20260507070329 | 72 | 271 | 0.0 | 0.0 | 0.00 | 0.00 | 0.00 | 96 | 1017.9 |
| 20260507065825 | 72 | 271 | 0.0 | 0.0 | 0.00 | 0.00 | 0.00 | 96 | 1017.5 |
| 20260507065322 | 72 | 271 | 0.0 | 0.0 | 0.00 | 0.00 | 0.00 | 96 | 1018.1 |
| 20260507064819 | 72 | 271 | 0.0 | 0.0 | 0.00 | 0.00 | 0.00 | 96 | 1017.8 |
| 20260507064318 | 72 | 271 | 0.0 | 0.0 | 0.00 | 0.00 | 0.00 | 96 | 1017.9 |
| 20260507063816 | 72 | 271 | 0.0 | 0.0 | 0.00 | 0.00 | 0.00 | 96 | 1018.0 |
| 20260507063312 | 72 | 271 | 0.0 | 0.0 | 0.00 | 0.00 | 0.00 | 96 | 1018.3 |
| 20260507062809 | 72 | 271 | 0.0 | 0.0 | 0.00 | 0.00 | 0.00 | 96 | 1018.1 |
| 20260507062306 | 72 | 271 | 0.0 | 0.0 | 0.00 | 0.00 | 0.00 | 96 | 1018.4 |
| 20260507061804 | 72 | 271 | 0.0 | 0.0 | 0.00 | 0.00 | 0.00 | 96 | 1018.3 |
| 20260507061301 | 72 | 272 | 0.0 | 0.0 | 0.00 | 0.00 | 0.00 | 96 | 1018.3 |
| 20260507060800 | 72 | 272 | 0.0 | 0.0 | 0.00 | 0.00 | 0.00 | 96 | 1018.4 |
| 20260507060256 | 72 | 271 | 0.0 | 0.0 | 0.00 | 0.00 | 0.00 | 96 | 1018.4 |
| 20260507055752 | 72 | 272 | 0.0 | 1.0 | 0.00 | 0.00 | 0.00 | 95 | 1018.4 |
| 20260507055248 | 73 | 272 | 0.0 | 0.0 | 0.00 | 0.00 | 0.00 | 95 | 1018.8 |
| 20260507054744 | 73 | 272 | 0.0 | 0.0 | 0.00 | 0.00 | 0.00 | 95 | 1018.6 |
| 20260507054241 | 73 | 272 | 0.0 | 0.0 | 0.00 | 0.00 | 0.00 | 95 | 1018.7 |
| 20260507053738 | 73 | 272 | 0.0 | 0.0 | 0.00 | 0.00 | 0.00 | 95 | 1018.7 |
| 20260507053236 | 73 | 272 | 0.0 | 0.0 | 0.00 | 0.00 | 0.00 | 95 | 1018.7 |
| 20260507052735 | 73 | 272 | 0.0 | 0.0 | 0.00 | 0.00 | 0.00 | 95 | 1018.7 |
| 20260507052231 | 74 | 272 | 0.0 | 0.0 | 0.00 | 0.00 | 0.00 | 95 | 1019.1 |
| 20260507051729 | 74 | 272 | 0.0 | 0.0 | 0.00 | 0.00 | 0.00 | 95 | 1019.2 |
| 20260507051225 | 73 | 272 | 0.0 | 0.0 | 0.00 | 0.00 | 0.00 | 96 | 1019.2 |
| 20260507050722 | 74 | 272 | 0.0 | 0.0 | 0.00 | 0.00 | 0.00 | 95 | 1019.4 |
| 20260507050219 | 74 | 272 | 0.0 | 0.0 | 0.00 | 0.00 | 0.00 | 96 | 1019.4 |
| 20260507045716 | 73 | 272 | 0.0 | 0.0 | 0.00 | 0.00 | 0.00 | 96 | 1019.6 |
| 20260507045212 | 73 | 272 | 0.0 | 0.0 | 0.00 | 0.00 | 0.00 | 96 | 1019.6 |
| 20260507044709 | 73 | 272 | 0.0 | 0.0 | 0.00 | 0.00 | 0.00 | 96 | 1019.6 |
| 20260507044206 | 73 | 272 | 0.0 | 0.0 | 0.00 | 0.00 | 0.00 | 96 | 1019.6 |
| 20260507043702 | 73 | 272 | 0.0 | 0.0 | 0.00 | 0.00 | 0.00 | 96 | 1019.8 |
| 20260507043159 | 73 | 272 | 0.0 | 0.0 | 0.00 | 0.00 | 0.00 | 96 | 1019.9 |
| 20260507042655 | 73 | 271 | 0.0 | 0.0 | 0.00 | 0.00 | 0.00 | 96 | 1019.9 |
| 20260507042150 | 73 | 272 | 0.0 | 0.0 | 0.00 | 0.00 | 0.00 | 96 | 1019.9 |
| 20260507041648 | 73 | 271 | 0.0 | 0.0 | 0.00 | 0.00 | 0.00 | 96 | 1019.9 |
| 20260507041144 | 72 | 271 | 0.0 | 0.0 | 0.00 | 0.00 | 0.00 | 96 | 1020.0 |
| 20260507040641 | 72 | 271 | 0.0 | 0.0 | 0.00 | 0.00 | 0.00 | 96 | 1020.0 |
| 20260507040138 | 72 | 272 | 0.0 | 0.0 | 0.00 | 0.00 | 0.00 | 96 | 1019.8 |
| 20260507035633 | 72 | 271 | 0.0 | 0.0 | 0.00 | 0.00 | 0.00 | 96 | 1020.1 |
| 20260507035130 | 72 | 271 | 0.0 | 0.0 | 0.00 | 0.00 | 0.00 | 96 | 1020.1 |
| 20260507034627 | 72 | 271 | 0.0 | 0.0 | 0.00 | 0.00 | 0.00 | 96 | 1020.2 |
| 20260507034124 | 72 | 271 | 0.0 | 0.0 | 0.00 | 0.00 | 0.00 | 95 | 1020.0 |
| 20260507033623 | 72 | 271 | 0.0 | 0.0 | 0.00 | 0.00 | 0.00 | 95 | 1019.9 |
| 20260507033119 | 72 | 271 | 0.0 | 0.0 | 0.00 | 0.00 | 0.00 | 95 | 1020.2 |
| 20260507032617 | 72 | 272 | 0.0 | 1.0 | 0.00 | 0.00 | 0.00 | 95 | 1020.0 |
| 20260507032113 | 72 | 273 | 0.0 | 0.0 | 0.00 | 0.00 | 0.00 | 95 | 1020.1 |
| 20260507031609 | 72 | 273 | 0.0 | 0.0 | 0.00 | 0.00 | 0.00 | 95 | 1020.2 |
| 20260507031106 | 72 | 273 | 0.0 | 0.0 | 0.00 | 0.00 | 0.00 | 95 | 1020.1 |
| 20260507030602 | 72 | 273 | 0.0 | 0.0 | 0.00 | 0.00 | 0.00 | 95 | 1020.1 |
| 20260507030101 | 72 | 273 | 0.0 | 0.0 | 0.00 | 0.00 | 0.00 | 95 | 1019.7 |
| 20260507025558 | 72 | 273 | 0.0 | 0.0 | 0.00 | 0.00 | 0.00 | 95 | 1020.1 |
| 20260507025054 | 73 | 273 | 0.0 | 0.0 | 0.00 | 0.00 | 0.00 | 95 | 1020.2 |
| 20260507024553 | 73 | 273 | 0.0 | 0.0 | 0.00 | 0.00 | 0.00 | 95 | 1020.2 |
| 20260507024049 | 73 | 273 | 0.0 | 0.0 | 0.00 | 0.00 | 0.00 | 95 | 1020.1 |
| 20260507023545 | 73 | 273 | 0.0 | 0.0 | 0.00 | 0.00 | 0.00 | 95 | 1020.2 |
| 20260507023043 | 73 | 273 | 0.0 | 0.0 | 0.00 | 0.00 | 0.00 | 95 | 1020.0 |
| 20260507022539 | 73 | 273 | 0.0 | 0.0 | 0.00 | 0.00 | 0.00 | 95 | 1020.2 |
| 20260507022034 | 73 | 273 | 0.0 | 0.0 | 0.00 | 0.00 | 0.00 | 95 | 1020.1 |
| 20260507021531 | 73 | 273 | 0.0 | 0.0 | 0.00 | 0.00 | 0.00 | 95 | 1019.9 |
| 20260507021027 | 73 | 273 | 0.0 | 0.0 | 0.00 | 0.00 | 0.00 | 95 | 1020.0 |
| 20260507020525 | 73 | 273 | 0.0 | 0.0 | 0.00 | 0.00 | 0.00 | 95 | 1020.2 |
| 20260507020021 | 73 | 273 | 0.0 | 0.0 | 0.00 | 0.00 | 0.00 | 94 | 1020.0 |
| 20260507015520 | 73 | 273 | 0.0 | 0.0 | 0.00 | 0.00 | 0.00 | 94 | 1019.9 |
| 20260507015017 | 73 | 273 | 0.0 | 0.0 | 0.00 | 0.00 | 0.00 | 94 | 1019.9 |
| 20260507014513 | 73 | 273 | 0.0 | 0.0 | 0.00 | 0.00 | 0.00 | 94 | 1019.9 |
| 20260507014009 | 73 | 273 | 0.0 | 0.0 | 0.00 | 0.00 | 0.00 | 94 | 1019.7 |
| 20260507013506 | 73 | 273 | 0.0 | 0.0 | 0.00 | 0.00 | 0.00 | 94 | 1019.7 |